createdAt,value
2022-10-16T00:00:16.308Z,17.20
2022-10-16T00:05:14.416Z,17.20
2022-10-16T00:10:12.515Z,17.10
2022-10-16T00:15:12.294Z,17.00
2022-10-16T00:20:10.758Z,17.00
2022-10-16T00:25:09.248Z,16.90
2022-10-16T00:30:09.295Z,16.90
2022-10-16T00:35:09.298Z,16.90
2022-10-16T00:40:08.610Z,16.80
2022-10-16T00:45:08.929Z,16.80
2022-10-16T00:50:11.583Z,16.80
2022-10-16T00:55:11.466Z,16.70
2022-10-16T01:00:13.012Z,16.70
2022-10-16T01:05:12.793Z,16.60
2022-10-16T01:10:24.496Z,16.60
2022-10-16T01:15:28.610Z,16.60
2022-10-16T01:20:32.177Z,16.60
2022-10-16T01:25:45.021Z,16.50
2022-10-16T01:30:46.131Z,16.50
2022-10-16T01:35:48.991Z,16.50
2022-10-16T01:40:51.700Z,16.40
2022-10-16T01:45:51.829Z,16.40
2022-10-16T01:50:56.158Z,16.30
2022-10-16T01:55:56.110Z,16.30
2022-10-16T02:00:57.358Z,16.30
2022-10-16T02:05:58.610Z,16.30
2022-10-16T02:10:57.207Z,16.20
2022-10-16T02:15:56.936Z,16.20
2022-10-16T02:21:00.839Z,16.10
2022-10-16T02:26:01.894Z,16.10
2022-10-16T02:31:05.894Z,16.10
2022-10-16T02:36:04.231Z,16.00
2022-10-16T02:41:02.520Z,16.00
2022-10-16T02:46:02.441Z,15.90
2022-10-16T02:51:00.500Z,15.90
2022-10-16T02:55:58.565Z,15.90
2022-10-16T03:00:57.727Z,15.80
2022-10-16T03:05:57.264Z,15.80
2022-10-16T03:10:55.436Z,15.80
2022-10-16T03:15:53.542Z,15.80
2022-10-16T03:20:51.618Z,15.70
2022-10-16T03:25:51.069Z,15.70
2022-10-16T03:30:49.141Z,15.70
2022-10-16T03:35:54.149Z,15.60
2022-10-16T03:40:53.598Z,15.60
2022-10-16T03:45:52.492Z,15.60
2022-10-16T03:50:51.480Z,15.60
2022-10-16T03:55:49.556Z,15.50
2022-10-16T04:00:49.527Z,15.50
2022-10-16T04:05:47.674Z,15.40
2022-10-16T04:10:45.898Z,15.40
2022-10-16T04:15:44.103Z,15.40
2022-10-16T04:20:43.590Z,15.40
2022-10-16T04:25:41.673Z,15.40
2022-10-16T04:30:40.771Z,15.40
2022-10-16T04:35:38.861Z,15.30
2022-10-16T04:40:38.342Z,15.30
2022-10-16T04:45:36.573Z,15.30
2022-10-16T04:50:34.648Z,15.30
2022-10-16T04:55:38.385Z,15.30
2022-10-16T05:00:36.956Z,15.30
2022-10-16T05:05:35.111Z,15.30
2022-10-16T05:10:34.253Z,15.30
2022-10-16T05:15:33.935Z,15.20
2022-10-16T05:20:32.035Z,15.30
2022-10-16T05:25:30.074Z,15.20
2022-10-16T05:30:28.141Z,15.20
2022-10-16T05:35:27.581Z,15.20
2022-10-16T05:40:25.728Z,15.20
2022-10-16T05:45:23.944Z,15.20
2022-10-16T05:50:21.996Z,15.20
2022-10-16T05:55:21.424Z,15.20
2022-10-16T06:00:19.835Z,15.10
2022-10-16T06:05:17.919Z,15.10
2022-10-16T06:10:16.173Z,15.10
2022-10-16T06:15:15.671Z,15.10
2022-10-16T06:20:13.994Z,15.10
2022-10-16T06:25:12.092Z,15.10
2022-10-16T06:30:11.255Z,15.10
2022-10-16T06:35:10.977Z,15.10
2022-10-16T06:40:09.831Z,15.10
2022-10-16T06:45:08.855Z,15.00
2022-10-16T06:50:08.556Z,15.00
2022-10-16T06:55:09.017Z,15.00
2022-10-16T07:00:08.444Z,15.00
2022-10-16T07:05:06.944Z,15.00
2022-10-16T07:10:05.670Z,15.00
2022-10-16T07:15:05.600Z,15.00
2022-10-16T07:20:04.009Z,15.10
2022-10-16T07:25:02.093Z,15.10
2022-10-16T07:30:03.727Z,15.10
2022-10-16T07:35:06.769Z,15.10
2022-10-16T07:40:05.499Z,15.10
2022-10-16T07:45:03.614Z,15.20
2022-10-16T07:50:01.733Z,15.30
2022-10-16T07:55:01.148Z,15.30
2022-10-16T07:59:59.265Z,15.40
2022-10-16T08:04:57.346Z,15.50
2022-10-16T08:09:57.447Z,15.60
2022-10-16T08:14:56.894Z,15.70
2022-10-16T08:19:55.002Z,15.80
2022-10-16T08:24:53.105Z,16.00
2022-10-16T08:29:51.447Z,16.20
2022-10-16T08:34:50.899Z,16.20
2022-10-16T08:39:48.969Z,16.30
2022-10-16T08:45:17.873Z,16.40
2022-10-16T08:50:23.623Z,16.60
2022-10-16T08:55:44.603Z,16.70
2022-10-16T09:00:43.835Z,16.90
2022-10-16T09:05:59.864Z,17.00
2022-10-16T09:11:02.052Z,17.10
2022-10-16T09:23:10.625Z,17.50
2022-10-16T09:28:10.568Z,17.60
2022-10-16T09:33:10.135Z,17.80
2022-10-16T09:38:10.587Z,17.90
2022-10-16T09:50:02.861Z,18.30
2022-10-16T09:55:03.916Z,18.50
2022-10-16T10:00:12.224Z,18.60
2022-10-16T10:05:21.998Z,18.80
2022-10-16T10:10:25.638Z,18.90
2022-10-16T10:15:36.481Z,19.00
2022-10-16T10:20:36.059Z,19.00
2022-10-16T10:25:50.350Z,19.20
2022-10-16T10:30:58.375Z,19.30
2022-10-16T10:36:07.243Z,19.40
2022-10-16T10:41:22.145Z,19.60
2022-10-16T10:46:30.917Z,19.70
2022-10-16T10:51:36.323Z,19.80
2022-10-16T10:56:49.198Z,19.90
2022-10-16T11:01:56.635Z,20.00
2022-10-16T11:07:00.312Z,20.10
2022-10-16T11:19:02.089Z,20.30
2022-10-16T11:24:06.815Z,20.40
2022-10-16T11:29:14.307Z,20.50
2022-10-16T11:34:19.845Z,20.60
2022-10-16T11:39:23.387Z,20.70
2022-10-16T11:44:43.035Z,20.80
2022-10-16T11:49:43.910Z,21.00
2022-10-16T11:54:50.483Z,21.10
2022-10-16T11:59:53.611Z,21.20
2022-10-16T12:05:01.856Z,21.20
2022-10-16T12:10:01.737Z,21.30
2022-10-16T12:15:17.621Z,21.40
2022-10-16T12:20:32.947Z,21.50
2022-10-16T12:25:33.552Z,21.60
2022-10-16T12:30:35.939Z,21.60
2022-10-16T12:35:44.911Z,21.70
2022-10-16T12:40:45.266Z,21.60
2022-10-16T12:45:43.355Z,21.60
2022-10-16T12:50:42.801Z,21.60
2022-10-16T12:55:53.196Z,21.60
2022-10-16T13:07:57.284Z,21.60
2022-10-16T13:13:36.282Z,21.60
2022-10-16T13:18:45.465Z,21.60
2022-10-16T13:23:52.020Z,21.60
2022-10-16T13:42:09.537Z,21.70
2022-10-16T13:47:07.649Z,21.90
2022-10-16T13:52:35.843Z,22.00
2022-10-16T13:57:35.308Z,22.00
2022-10-16T14:02:37.664Z,22.00
2022-10-16T14:07:36.813Z,22.10
2022-10-16T14:12:36.923Z,22.10
2022-10-16T14:17:37.573Z,22.20
2022-10-16T14:22:37.628Z,22.20
2022-10-16T14:27:39.103Z,22.20
2022-10-16T14:32:37.212Z,22.20
2022-10-16T14:37:35.608Z,22.20
2022-10-16T14:42:33.912Z,22.20
2022-10-16T14:47:33.724Z,22.20
2022-10-16T14:52:31.833Z,22.20
2022-10-16T14:57:33.758Z,22.10
2022-10-16T15:02:35.419Z,22.00
2022-10-16T15:07:33.534Z,21.90
2022-10-16T15:12:31.605Z,21.80
2022-10-16T15:17:29.938Z,21.60
2022-10-16T15:22:29.491Z,21.50
2022-10-16T15:27:27.735Z,21.40
2022-10-16T15:32:26.078Z,21.30
2022-10-16T15:37:24.812Z,21.10
2022-10-16T15:42:24.899Z,21.00
2022-10-16T15:47:23.287Z,20.90
2022-10-16T15:52:21.375Z,20.70
2022-10-16T15:57:19.503Z,20.60
2022-10-16T16:02:18.985Z,20.50
2022-10-16T16:07:17.126Z,20.40
2022-10-16T16:12:15.337Z,20.30
2022-10-16T16:17:13.539Z,20.20
2022-10-16T16:22:24.752Z,20.00
2022-10-16T16:27:26.052Z,19.90
2022-10-16T16:32:24.606Z,19.80
2022-10-16T16:37:24.391Z,19.70
2022-10-16T16:42:22.599Z,19.50
2022-10-16T16:47:20.907Z,19.40
2022-10-16T16:52:19.168Z,19.30
2022-10-16T16:57:43.857Z,19.20
2022-10-16T17:02:44.126Z,19.00
2022-10-16T17:07:42.260Z,18.90
2022-10-16T17:12:40.545Z,18.80
2022-10-16T17:17:40.129Z,18.70
2022-10-16T17:22:38.308Z,18.60
2022-10-16T17:27:40.765Z,18.50
2022-10-16T17:32:40.266Z,18.30
2022-10-16T17:37:38.318Z,18.20
2022-10-16T17:42:36.409Z,18.10
2022-10-16T17:47:34.523Z,18.00
2022-10-16T17:52:33.972Z,17.90
2022-10-16T17:57:32.625Z,17.80
2022-10-16T18:02:30.732Z,17.70
2022-10-16T18:07:28.973Z,17.60
2022-10-16T18:12:28.854Z,17.50
2022-10-16T18:17:39.315Z,17.40
2022-10-16T18:22:38.062Z,17.40
2022-10-16T18:27:37.685Z,17.20
2022-10-16T18:32:35.867Z,17.20
2022-10-16T18:37:36.954Z,17.10
2022-10-16T18:42:35.177Z,17.10
2022-10-16T18:47:34.632Z,17.00
2022-10-16T18:52:32.723Z,16.90
2022-10-16T18:57:31.170Z,16.80
2022-10-16T19:02:29.316Z,16.80
2022-10-16T19:07:29.317Z,16.70
2022-10-16T19:12:27.903Z,16.60
2022-10-16T19:17:26.188Z,16.60
2022-10-16T19:22:40.814Z,16.50
2022-10-16T19:27:40.388Z,16.50
2022-10-16T19:32:38.546Z,16.40
2022-10-16T19:37:36.767Z,16.40
2022-10-16T19:42:36.208Z,16.30
2022-10-16T19:47:36.636Z,16.30
2022-10-16T19:52:34.745Z,16.30
2022-10-16T20:02:35.301Z,16.20
2022-10-16T20:07:34.852Z,16.20
2022-10-16T20:12:33.322Z,16.20
2022-10-16T20:17:31.420Z,16.20
2022-10-16T20:22:30.915Z,16.10
2022-10-16T20:27:29.674Z,16.10
2022-10-16T20:32:28.192Z,16.00
2022-10-16T20:37:26.531Z,16.00
2022-10-16T20:42:26.205Z,16.00
2022-10-16T20:47:24.859Z,15.90
2022-10-16T20:52:23.151Z,15.90
2022-10-16T20:57:21.257Z,15.90
2022-10-16T21:03:12.660Z,15.90
2022-10-16T21:08:12.179Z,15.80
2022-10-16T21:13:10.215Z,15.80
2022-10-16T21:18:08.268Z,15.80
2022-10-16T21:23:06.279Z,15.80
2022-10-16T21:28:05.890Z,15.80
2022-10-16T21:33:03.920Z,15.80
2022-10-16T21:38:01.904Z,15.80
2022-10-16T21:43:00.015Z,15.70
2022-10-16T21:47:59.395Z,15.70
2022-10-16T21:53:12.648Z,15.70
2022-10-16T21:58:10.633Z,15.70
2022-10-16T22:03:10.033Z,15.80
2022-10-16T22:08:08.298Z,15.60
2022-10-16T22:13:06.299Z,15.60
2022-10-16T22:18:04.380Z,15.70
2022-10-16T22:23:03.765Z,15.60
2022-10-16T22:28:01.773Z,15.60
2022-10-16T22:32:59.778Z,15.70
2022-10-16T22:37:58.388Z,15.70
2022-10-16T22:42:58.275Z,15.60
2022-10-16T22:47:56.385Z,15.60
2022-10-16T22:52:54.782Z,15.60
2022-10-16T22:57:53.127Z,15.60
2022-10-16T23:02:52.617Z,15.60
2022-10-16T23:07:50.700Z,15.60
2022-10-16T23:12:48.755Z,15.60
2022-10-16T23:17:46.825Z,15.60
2022-10-16T23:22:46.247Z,15.60
2022-10-16T23:27:44.827Z,15.60
2022-10-16T23:32:43.084Z,15.60
2022-10-16T23:37:41.151Z,15.60
2022-10-16T23:42:40.577Z,15.60
2022-10-16T23:47:38.644Z,15.70
2022-10-16T23:52:36.736Z,15.70
2022-10-16T23:57:34.818Z,15.70
